sensor_id;sensor_type;location;lat;lon;timestamp;pressure;altitude;pressure_sealevel;temperature;humidity
12360;BME280;6244;51.460;7.090;2023-04-20T00:04:20;101105.69;;;8.62;39.60
12360;BME280;6244;51.460;7.090;2023-04-20T00:09:18;101094.66;;;8.77;39.21
12360;BME280;6244;51.460;7.090;2023-04-20T00:14:15;101094.16;;;8.91;39.47
12360;BME280;6244;51.460;7.090;2023-04-20T00:19:11;101080.06;;;8.71;39.73
12360;BME280;6244;51.460;7.090;2023-04-20T00:24:08;101069.81;;;8.65;38.94
12360;BME280;6244;51.460;7.090;2023-04-20T00:29:06;101067.75;;;8.50;39.55
12360;BME280;6244;51.460;7.090;2023-04-20T00:34:02;101054.53;;;8.53;39.94
12360;BME280;6244;51.460;7.090;2023-04-20T00:38:59;101049.91;;;8.61;39.80
12360;BME280;6244;51.460;7.090;2023-04-20T00:43:56;101040.56;;;8.77;39.78
12360;BME280;6244;51.460;7.090;2023-04-20T00:48:55;101032.63;;;8.32;39.95
12360;BME280;6244;51.460;7.090;2023-04-20T00:53:52;101022.94;;;8.36;39.68
12360;BME280;6244;51.460;7.090;2023-04-20T00:58:48;101017.75;;;8.34;39.85
12360;BME280;6244;51.460;7.090;2023-04-20T01:03:45;101004.72;;;8.33;40.12
12360;BME280;6244;51.460;7.090;2023-04-20T01:08:47;100994.41;;;8.28;40.33
12360;BME280;6244;51.460;7.090;2023-04-20T01:13:44;100989.28;;;8.50;40.12
12360;BME280;6244;51.460;7.090;2023-04-20T01:18:41;100992.94;;;8.46;40.20
12360;BME280;6244;51.460;7.090;2023-04-20T01:23:40;100979.34;;;8.36;40.37
12360;BME280;6244;51.460;7.090;2023-04-20T01:28:37;100971.09;;;8.47;39.83
12360;BME280;6244;51.460;7.090;2023-04-20T01:33:34;100972.16;;;8.41;40.46
12360;BME280;6244;51.460;7.090;2023-04-20T01:38:32;100957.44;;;8.39;40.39
12360;BME280;6244;51.460;7.090;2023-04-20T01:43:31;100937.81;;;8.50;40.84
12360;BME280;6244;51.460;7.090;2023-04-20T01:48:28;100938.00;;;8.69;39.79
12360;BME280;6244;51.460;7.090;2023-04-20T01:53:24;100925.56;;;8.74;40.24
12360;BME280;6244;51.460;7.090;2023-04-20T01:58:21;100925.00;;;8.66;40.06
12360;BME280;6244;51.460;7.090;2023-04-20T02:03:19;100913.63;;;8.67;41.17
12360;BME280;6244;51.460;7.090;2023-04-20T02:08:15;100900.94;;;8.58;41.53
12360;BME280;6244;51.460;7.090;2023-04-20T02:13:15;100899.22;;;8.57;41.79
12360;BME280;6244;51.460;7.090;2023-04-20T02:18:14;100895.03;;;8.75;42.00
12360;BME280;6244;51.460;7.090;2023-04-20T02:23:12;100893.75;;;8.63;42.18
12360;BME280;6244;51.460;7.090;2023-04-20T02:28:08;100891.41;;;8.56;41.90
12360;BME280;6244;51.460;7.090;2023-04-20T02:33:05;100886.19;;;8.56;42.91
12360;BME280;6244;51.460;7.090;2023-04-20T02:38:02;100878.03;;;8.41;44.27
12360;BME280;6244;51.460;7.090;2023-04-20T02:42:59;100885.06;;;8.39;46.17
12360;BME280;6244;51.460;7.090;2023-04-20T02:47:56;100870.09;;;8.44;45.83
12360;BME280;6244;51.460;7.090;2023-04-20T02:52:52;100872.25;;;8.55;47.04
12360;BME280;6244;51.460;7.090;2023-04-20T02:57:49;100862.72;;;8.54;47.54
12360;BME280;6244;51.460;7.090;2023-04-20T03:02:47;100868.69;;;8.58;48.53
12360;BME280;6244;51.460;7.090;2023-04-20T03:07:43;100858.03;;;8.40;48.50
12360;BME280;6244;51.460;7.090;2023-04-20T03:12:40;100852.31;;;8.29;49.48
12360;BME280;6244;51.460;7.090;2023-04-20T03:17:36;100847.81;;;8.11;50.50
12360;BME280;6244;51.460;7.090;2023-04-20T03:22:34;100840.34;;;8.23;51.04
12360;BME280;6244;51.460;7.090;2023-04-20T03:27:31;100841.97;;;8.26;50.59
12360;BME280;6244;51.460;7.090;2023-04-20T03:32:27;100847.81;;;8.11;52.47
12360;BME280;6244;51.460;7.090;2023-04-20T03:37:24;100841.00;;;7.83;54.68
12360;BME280;6244;51.460;7.090;2023-04-20T03:42:22;100836.44;;;7.88;55.26
12360;BME280;6244;51.460;7.090;2023-04-20T03:47:18;100837.06;;;7.72;56.37
12360;BME280;6244;51.460;7.090;2023-04-20T03:52:15;100823.84;;;7.76;56.85
12360;BME280;6244;51.460;7.090;2023-04-20T03:57:11;100820.56;;;7.71;57.85
12360;BME280;6244;51.460;7.090;2023-04-20T04:02:09;100829.50;;;7.64;57.96
12360;BME280;6244;51.460;7.090;2023-04-20T04:07:07;100818.19;;;7.63;58.08
12360;BME280;6244;51.460;7.090;2023-04-20T04:12:06;100819.84;;;7.66;57.53
12360;BME280;6244;51.460;7.090;2023-04-20T04:17:03;100816.09;;;7.50;58.23
12360;BME280;6244;51.460;7.090;2023-04-20T04:22:03;100809.84;;;7.54;58.02
12360;BME280;6244;51.460;7.090;2023-04-20T04:27:01;100809.84;;;7.54;58.59
12360;BME280;6244;51.460;7.090;2023-04-20T04:31:59;100811.78;;;7.49;59.01
12360;BME280;6244;51.460;7.090;2023-04-20T04:36:56;100811.19;;;7.41;58.93
12360;BME280;6244;51.460;7.090;2023-04-20T04:41:53;100799.16;;;7.36;59.11
12360;BME280;6244;51.460;7.090;2023-04-20T04:46:51;100805.22;;;7.37;59.77
12360;BME280;6244;51.460;7.090;2023-04-20T04:51:48;100808.47;;;7.44;59.86
12360;BME280;6244;51.460;7.090;2023-04-20T04:56:45;100810.88;;;7.50;59.37
12360;BME280;6244;51.460;7.090;2023-04-20T05:01:43;100808.38;;;7.47;60.13
12360;BME280;6244;51.460;7.090;2023-04-20T05:06:39;100814.09;;;7.56;59.51
12360;BME280;6244;51.460;7.090;2023-04-20T05:11:36;100805.59;;;7.51;58.94
12360;BME280;6244;51.460;7.090;2023-04-20T05:16:32;100806.94;;;7.38;60.14
12360;BME280;6244;51.460;7.090;2023-04-20T05:21:30;100815.41;;;7.45;59.43
12360;BME280;6244;51.460;7.090;2023-04-20T05:26:27;100809.22;;;7.47;59.89
12360;BME280;6244;51.460;7.090;2023-04-20T05:31:24;100815.25;;;7.49;59.87
12360;BME280;6244;51.460;7.090;2023-04-20T05:36:21;100816.34;;;7.42;59.85
12360;BME280;6244;51.460;7.090;2023-04-20T05:41:19;100808.75;;;7.36;60.38
12360;BME280;6244;51.460;7.090;2023-04-20T05:46:21;100808.22;;;7.26;60.66
12360;BME280;6244;51.460;7.090;2023-04-20T05:51:17;100816.66;;;7.34;60.97
12360;BME280;6244;51.460;7.090;2023-04-20T05:56:14;100817.59;;;7.07;62.23
12360;BME280;6244;51.460;7.090;2023-04-20T06:01:14;100814.09;;;7.06;64.12
12360;BME280;6244;51.460;7.090;2023-04-20T06:06:10;100832.72;;;6.97;67.56
12360;BME280;6244;51.460;7.090;2023-04-20T06:11:07;100834.53;;;6.67;68.81
12360;BME280;6244;51.460;7.090;2023-04-20T06:16:03;100832.56;;;6.75;69.64
12360;BME280;6244;51.460;7.090;2023-04-20T06:21:08;100828.84;;;6.83;68.61
12360;BME280;6244;51.460;7.090;2023-04-20T06:26:04;100831.59;;;6.78;70.21
12360;BME280;6244;51.460;7.090;2023-04-20T06:31:03;100832.16;;;6.61;70.85
12360;BME280;6244;51.460;7.090;2023-04-20T06:36:00;100832.09;;;6.63;71.71
12360;BME280;6244;51.460;7.090;2023-04-20T06:40:58;100836.28;;;6.67;72.86
12360;BME280;6244;51.460;7.090;2023-04-20T06:45:56;100829.28;;;6.69;71.82
12360;BME280;6244;51.460;7.090;2023-04-20T06:50:53;100837.88;;;6.72;71.91
12360;BME280;6244;51.460;7.090;2023-04-20T06:55:52;100835.50;;;6.65;72.51
12360;BME280;6244;51.460;7.090;2023-04-20T07:00:50;100823.25;;;6.67;72.64
12360;BME280;6244;51.460;7.090;2023-04-20T07:05:46;100824.69;;;6.77;72.11
12360;BME280;6244;51.460;7.090;2023-04-20T07:10:43;100825.91;;;6.92;72.16
12360;BME280;6244;51.460;7.090;2023-04-20T07:15:39;100823.38;;;6.90;71.63
12360;BME280;6244;51.460;7.090;2023-04-20T07:20:39;100830.94;;;6.98;70.76
12360;BME280;6244;51.460;7.090;2023-04-20T07:25:35;100831.19;;;6.90;71.01
12360;BME280;6244;51.460;7.090;2023-04-20T07:30:32;100821.88;;;6.83;70.72
12360;BME280;6244;51.460;7.090;2023-04-20T07:35:28;100826.19;;;6.84;71.15
12360;BME280;6244;51.460;7.090;2023-04-20T07:40:26;100817.66;;;6.79;70.77
12360;BME280;6244;51.460;7.090;2023-04-20T07:45:23;100817.25;;;6.91;70.46
12360;BME280;6244;51.460;7.090;2023-04-20T07:50:19;100821.47;;;6.95;69.85
12360;BME280;6244;51.460;7.090;2023-04-20T07:55:16;100815.28;;;6.98;69.56
12360;BME280;6244;51.460;7.090;2023-04-20T08:00:15;100811.47;;;7.08;69.20
12360;BME280;6244;51.460;7.090;2023-04-20T08:05:12;100807.06;;;7.10;68.72
12360;BME280;6244;51.460;7.090;2023-04-20T08:10:09;100810.03;;;6.99;69.13
12360;BME280;6244;51.460;7.090;2023-04-20T08:15:07;100809.13;;;7.00;69.07
12360;BME280;6244;51.460;7.090;2023-04-20T08:20:06;100800.75;;;7.16;68.73
12360;BME280;6244;51.460;7.090;2023-04-20T08:25:04;100804.88;;;7.23;68.23
12360;BME280;6244;51.460;7.090;2023-04-20T08:30:01;100791.97;;;7.18;69.15
12360;BME280;6244;51.460;7.090;2023-04-20T08:34:58;100790.63;;;7.31;67.52
12360;BME280;6244;51.460;7.090;2023-04-20T08:39:56;100786.50;;;7.26;67.51
12360;BME280;6244;51.460;7.090;2023-04-20T08:44:53;100782.75;;;7.33;67.64
12360;BME280;6244;51.460;7.090;2023-04-20T08:49:52;100788.47;;;7.44;69.66
12360;BME280;6244;51.460;7.090;2023-04-20T08:54:48;100785.09;;;7.64;69.99
12360;BME280;6244;51.460;7.090;2023-04-20T08:59:47;100800.09;;;7.59;72.35
12360;BME280;6244;51.460;7.090;2023-04-20T09:04:43;100793.56;;;7.47;74.51
12360;BME280;6244;51.460;7.090;2023-04-20T09:09:52;100793.41;;;8.44;72.77
12360;BME280;6244;51.460;7.090;2023-04-20T09:14:51;100783.44;;;8.08;72.36
12360;BME280;6244;51.460;7.090;2023-04-20T09:19:52;100783.81;;;8.65;71.66
12360;BME280;6244;51.460;7.090;2023-04-20T09:24:48;100788.19;;;8.42;69.82
12360;BME280;6244;51.460;7.090;2023-04-20T09:29:56;100791.88;;;8.38;71.46
12360;BME280;6244;51.460;7.090;2023-04-20T09:34:53;100792.31;;;8.26;70.89
12360;BME280;6244;51.460;7.090;2023-04-20T09:39:50;100792.41;;;8.01;71.29
12360;BME280;6244;51.460;7.090;2023-04-20T09:44:47;100792.19;;;8.07;72.40
12360;BME280;6244;51.460;7.090;2023-04-20T09:49:45;100781.47;;;8.59;70.48
12360;BME280;6244;51.460;7.090;2023-04-20T09:54:42;100783.31;;;8.77;71.67
12360;BME280;6244;51.460;7.090;2023-04-20T09:59:41;100772.13;;;9.14;71.65
12360;BME280;6244;51.460;7.090;2023-04-20T10:04:53;100778.03;;;8.99;72.01
12360;BME280;6244;51.460;7.090;2023-04-20T10:10:01;100773.25;;;8.46;72.97
12360;BME280;6244;51.460;7.090;2023-04-20T10:14:58;100777.69;;;8.86;73.86
12360;BME280;6244;51.460;7.090;2023-04-20T10:19:56;100774.28;;;9.25;71.20
12360;BME280;6244;51.460;7.090;2023-04-20T10:24:53;100757.81;;;10.89;65.15
12360;BME280;6244;51.460;7.090;2023-04-20T10:29:50;100764.38;;;10.98;63.47
12360;BME280;6244;51.460;7.090;2023-04-20T10:34:46;100752.25;;;12.10;61.39
12360;BME280;6244;51.460;7.090;2023-04-20T10:39:45;100746.75;;;12.60;58.43
12360;BME280;6244;51.460;7.090;2023-04-20T10:44:48;100745.13;;;11.47;60.00
12360;BME280;6244;51.460;7.090;2023-04-20T10:49:45;100748.81;;;9.86;61.90
12360;BME280;6244;51.460;7.090;2023-04-20T10:54:41;100745.63;;;9.22;63.23
12360;BME280;6244;51.460;7.090;2023-04-20T10:59:39;100745.78;;;9.37;63.32
12360;BME280;6244;51.460;7.090;2023-04-20T11:04:36;100735.19;;;9.78;62.88
12360;BME280;6244;51.460;7.090;2023-04-20T11:09:33;100728.03;;;9.63;61.70
12360;BME280;6244;51.460;7.090;2023-04-20T11:14:31;100736.16;;;9.19;63.01
12360;BME280;6244;51.460;7.090;2023-04-20T11:19:30;100730.19;;;9.16;62.96
12360;BME280;6244;51.460;7.090;2023-04-20T11:24:28;100722.06;;;9.22;64.14
12360;BME280;6244;51.460;7.090;2023-04-20T11:29:29;100708.72;;;9.84;61.28
12360;BME280;6244;51.460;7.090;2023-04-20T11:34:27;100703.44;;;11.57;55.22
12360;BME280;6244;51.460;7.090;2023-04-20T11:39:26;100703.28;;;12.08;54.24
12360;BME280;6244;51.460;7.090;2023-04-20T11:44:24;100701.59;;;11.26;54.34
12360;BME280;6244;51.460;7.090;2023-04-20T11:49:22;100713.72;;;10.44;55.63
12360;BME280;6244;51.460;7.090;2023-04-20T11:54:19;100702.03;;;9.96;57.52
12360;BME280;6244;51.460;7.090;2023-04-20T11:59:17;100702.81;;;9.98;57.04
12360;BME280;6244;51.460;7.090;2023-04-20T12:04:14;100693.94;;;10.00;56.73
12360;BME280;6244;51.460;7.090;2023-04-20T12:09:11;100710.06;;;9.93;57.26
12360;BME280;6244;51.460;7.090;2023-04-20T12:14:08;100710.38;;;10.04;57.99
12360;BME280;6244;51.460;7.090;2023-04-20T12:19:05;100701.16;;;10.50;57.73
12360;BME280;6244;51.460;7.090;2023-04-20T12:24:03;100706.63;;;10.63;56.91
12360;BME280;6244;51.460;7.090;2023-04-20T12:29:00;100697.97;;;11.29;57.98
12360;BME280;6244;51.460;7.090;2023-04-20T12:33:56;100699.22;;;11.86;52.34
12360;BME280;6244;51.460;7.090;2023-04-20T12:38:54;100698.94;;;11.75;51.16
12360;BME280;6244;51.460;7.090;2023-04-20T12:43:51;100693.78;;;11.09;52.65
12360;BME280;6244;51.460;7.090;2023-04-20T12:48:47;100695.78;;;11.53;53.49
12360;BME280;6244;51.460;7.090;2023-04-20T12:53:44;100683.00;;;12.10;50.34
12360;BME280;6244;51.460;7.090;2023-04-20T12:58:42;100691.47;;;12.30;47.85
12360;BME280;6244;51.460;7.090;2023-04-20T13:03:39;100695.19;;;11.81;48.46
12360;BME280;6244;51.460;7.090;2023-04-20T13:08:36;100691.09;;;11.26;50.20
12360;BME280;6244;51.460;7.090;2023-04-20T13:13:32;100686.44;;;11.31;50.52
12360;BME280;6244;51.460;7.090;2023-04-20T13:18:30;100676.44;;;11.38;48.31
12360;BME280;6244;51.460;7.090;2023-04-20T13:23:27;100687.41;;;11.13;48.36
12360;BME280;6244;51.460;7.090;2023-04-20T13:28:23;100690.47;;;10.88;51.09
12360;BME280;6244;51.460;7.090;2023-04-20T13:33:20;100686.06;;;11.06;51.35
12360;BME280;6244;51.460;7.090;2023-04-20T13:38:18;100696.81;;;10.84;50.48
12360;BME280;6244;51.460;7.090;2023-04-20T13:43:15;100687.63;;;10.75;51.03
12360;BME280;6244;51.460;7.090;2023-04-20T13:48:11;100687.03;;;11.03;50.29
12360;BME280;6244;51.460;7.090;2023-04-20T13:53:08;100684.84;;;10.78;51.10
12360;BME280;6244;51.460;7.090;2023-04-20T13:58:05;100663.50;;;10.69;52.99
12360;BME280;6244;51.460;7.090;2023-04-20T14:03:02;100666.00;;;11.21;54.31
12360;BME280;6244;51.460;7.090;2023-04-20T14:08:00;100662.91;;;11.45;50.92
12360;BME280;6244;51.460;7.090;2023-04-20T14:12:58;100668.59;;;11.69;51.72
12360;BME280;6244;51.460;7.090;2023-04-20T14:17:56;100666.16;;;11.98;49.88
12360;BME280;6244;51.460;7.090;2023-04-20T14:22:54;100667.47;;;11.73;49.29
12360;BME280;6244;51.460;7.090;2023-04-20T14:27:50;100656.81;;;11.45;49.27
12360;BME280;6244;51.460;7.090;2023-04-20T14:32:59;100654.25;;;11.75;49.95
12360;BME280;6244;51.460;7.090;2023-04-20T14:37:55;100654.78;;;11.97;49.18
12360;BME280;6244;51.460;7.090;2023-04-20T14:42:52;100658.50;;;11.62;48.55
12360;BME280;6244;51.460;7.090;2023-04-20T14:47:51;100654.41;;;11.40;47.93
12360;BME280;6244;51.460;7.090;2023-04-20T14:52:50;100650.78;;;11.43;48.16
12360;BME280;6244;51.460;7.090;2023-04-20T14:57:47;100656.59;;;11.16;48.69
12360;BME280;6244;51.460;7.090;2023-04-20T15:02:43;100648.75;;;11.48;49.64
12360;BME280;6244;51.460;7.090;2023-04-20T15:07:39;100627.56;;;11.83;48.05
12360;BME280;6244;51.460;7.090;2023-04-20T15:12:37;100635.03;;;11.59;46.24
12360;BME280;6244;51.460;7.090;2023-04-20T15:17:34;100636.13;;;11.86;47.13
12360;BME280;6244;51.460;7.090;2023-04-20T15:22:30;100619.94;;;11.94;46.42
12360;BME280;6244;51.460;7.090;2023-04-20T15:27:27;100612.28;;;11.89;45.50
12360;BME280;6244;51.460;7.090;2023-04-20T15:32:25;100617.25;;;11.80;44.38
12360;BME280;6244;51.460;7.090;2023-04-20T15:37:24;100614.44;;;11.83;44.55
12360;BME280;6244;51.460;7.090;2023-04-20T15:42:20;100608.38;;;11.65;43.92
12360;BME280;6244;51.460;7.090;2023-04-20T15:47:17;100598.09;;;11.76;43.68
12360;BME280;6244;51.460;7.090;2023-04-20T15:52:15;100597.44;;;11.41;44.75
12360;BME280;6244;51.460;7.090;2023-04-20T15:57:11;100592.19;;;11.41;46.78
12360;BME280;6244;51.460;7.090;2023-04-20T16:02:08;100580.53;;;11.46;44.22
12360;BME280;6244;51.460;7.090;2023-04-20T16:07:04;100593.56;;;11.48;46.05
12360;BME280;6244;51.460;7.090;2023-04-20T16:12:02;100582.03;;;11.51;46.45
12360;BME280;6244;51.460;7.090;2023-04-20T16:17:00;100591.22;;;11.43;46.41
12360;BME280;6244;51.460;7.090;2023-04-20T16:21:57;100597.38;;;11.58;47.47
12360;BME280;6244;51.460;7.090;2023-04-20T16:26:53;100598.84;;;11.32;48.63
12360;BME280;6244;51.460;7.090;2023-04-20T16:31:56;100598.09;;;10.97;49.15
12360;BME280;6244;51.460;7.090;2023-04-20T16:36:52;100603.63;;;10.93;50.99
12360;BME280;6244;51.460;7.090;2023-04-20T16:41:49;100595.75;;;10.93;50.33
12360;BME280;6244;51.460;7.090;2023-04-20T16:46:46;100606.66;;;11.01;50.73
12360;BME280;6244;51.460;7.090;2023-04-20T16:51:44;100607.59;;;11.15;50.52
12360;BME280;6244;51.460;7.090;2023-04-20T16:56:41;100615.56;;;10.98;49.65
12360;BME280;6244;51.460;7.090;2023-04-20T17:01:38;100615.16;;;10.73;50.37
12360;BME280;6244;51.460;7.090;2023-04-20T17:06:34;100626.16;;;10.46;51.77
12360;BME280;6244;51.460;7.090;2023-04-20T17:11:32;100623.69;;;10.26;52.11
12360;BME280;6244;51.460;7.090;2023-04-20T17:16:30;100633.56;;;10.02;55.24
12360;BME280;6244;51.460;7.090;2023-04-20T17:21:26;100637.44;;;10.12;55.07
12360;BME280;6244;51.460;7.090;2023-04-20T17:26:23;100643.16;;;10.20;55.09
12360;BME280;6244;51.460;7.090;2023-04-20T17:31:21;100646.59;;;10.22;54.49
12360;BME280;6244;51.460;7.090;2023-04-20T17:36:17;100663.06;;;10.07;54.33
12360;BME280;6244;51.460;7.090;2023-04-20T17:41:14;100677.78;;;10.10;56.05
12360;BME280;6244;51.460;7.090;2023-04-20T17:46:10;100692.50;;;10.12;58.27
12360;BME280;6244;51.460;7.090;2023-04-20T17:51:08;100696.91;;;10.12;59.45
12360;BME280;6244;51.460;7.090;2023-04-20T17:56:04;100701.19;;;9.95;60.16
12360;BME280;6244;51.460;7.090;2023-04-20T18:01:01;100704.00;;;9.91;62.11
12360;BME280;6244;51.460;7.090;2023-04-20T18:05:58;100713.31;;;9.98;61.48
12360;BME280;6244;51.460;7.090;2023-04-20T18:10:56;100716.94;;;9.95;62.44
12360;BME280;6244;51.460;7.090;2023-04-20T18:15:52;100700.47;;;9.92;62.87
12360;BME280;6244;51.460;7.090;2023-04-20T18:20:49;100700.19;;;9.98;62.64
12360;BME280;6244;51.460;7.090;2023-04-20T18:25:45;100695.97;;;9.95;64.12
12360;BME280;6244;51.460;7.090;2023-04-20T18:30:43;100687.19;;;10.14;64.93
12360;BME280;6244;51.460;7.090;2023-04-20T18:35:40;100687.31;;;9.93;66.22
12360;BME280;6244;51.460;7.090;2023-04-20T18:40:37;100695.25;;;9.73;67.48
12360;BME280;6244;51.460;7.090;2023-04-20T18:45:34;100692.84;;;9.87;66.39
12360;BME280;6244;51.460;7.090;2023-04-20T18:50:31;100686.06;;;10.19;66.44
12360;BME280;6244;51.460;7.090;2023-04-20T18:55:28;100674.28;;;10.28;66.24
12360;BME280;6244;51.460;7.090;2023-04-20T19:00:25;100668.63;;;10.18;65.73
12360;BME280;6244;51.460;7.090;2023-04-20T19:05:22;100671.88;;;10.23;65.99
12360;BME280;6244;51.460;7.090;2023-04-20T19:10:20;100679.16;;;10.36;65.81
12360;BME280;6244;51.460;7.090;2023-04-20T19:15:16;100681.63;;;10.39;65.94
12360;BME280;6244;51.460;7.090;2023-04-20T19:20:19;100674.91;;;10.33;65.25
12360;BME280;6244;51.460;7.090;2023-04-20T19:25:15;100669.84;;;10.30;66.03
12360;BME280;6244;51.460;7.090;2023-04-20T19:30:14;100675.00;;;10.13;66.63
12360;BME280;6244;51.460;7.090;2023-04-20T19:35:10;100677.78;;;10.10;66.40
12360;BME280;6244;51.460;7.090;2023-04-20T19:40:07;100663.66;;;9.95;66.12
12360;BME280;6244;51.460;7.090;2023-04-20T19:45:04;100653.03;;;9.79;66.59
12360;BME280;6244;51.460;7.090;2023-04-20T19:50:03;100661.00;;;9.40;67.66
12360;BME280;6244;51.460;7.090;2023-04-20T19:55:00;100657.91;;;9.32;68.15
12360;BME280;6244;51.460;7.090;2023-04-20T19:59:57;100651.78;;;9.12;68.73
12360;BME280;6244;51.460;7.090;2023-04-20T20:04:53;100651.00;;;9.10;68.88
12360;BME280;6244;51.460;7.090;2023-04-20T20:09:51;100641.78;;;9.02;69.14
12360;BME280;6244;51.460;7.090;2023-04-20T20:14:48;100631.25;;;9.03;70.12
12360;BME280;6244;51.460;7.090;2023-04-20T20:19:45;100623.53;;;9.00;70.22
12360;BME280;6244;51.460;7.090;2023-04-20T20:24:41;100620.56;;;8.89;71.35
12360;BME280;6244;51.460;7.090;2023-04-20T20:29:40;100612.84;;;8.86;71.48
12360;BME280;6244;51.460;7.090;2023-04-20T20:34:36;100619.44;;;8.95;71.25
12360;BME280;6244;51.460;7.090;2023-04-20T20:39:33;100606.38;;;8.74;72.46
12360;BME280;6244;51.460;7.090;2023-04-20T20:44:29;100616.00;;;8.74;72.39
12360;BME280;6244;51.460;7.090;2023-04-20T20:49:30;100625.75;;;8.70;73.47
12360;BME280;6244;51.460;7.090;2023-04-20T20:54:27;100622.09;;;8.74;73.42
12360;BME280;6244;51.460;7.090;2023-04-20T20:59:23;100631.25;;;8.64;74.65
12360;BME280;6244;51.460;7.090;2023-04-20T21:04:20;100610.44;;;8.81;72.85
12360;BME280;6244;51.460;7.090;2023-04-20T21:09:18;100623.75;;;8.96;72.92
12360;BME280;6244;51.460;7.090;2023-04-20T21:14:14;100614.63;;;9.04;72.71
12360;BME280;6244;51.460;7.090;2023-04-20T21:19:12;100626.50;;;8.93;73.10
12360;BME280;6244;51.460;7.090;2023-04-20T21:24:08;100620.59;;;9.08;72.51
12360;BME280;6244;51.460;7.090;2023-04-20T21:29:06;100631.47;;;9.18;72.11
12360;BME280;6244;51.460;7.090;2023-04-20T21:34:03;100625.53;;;9.14;72.68
12360;BME280;6244;51.460;7.090;2023-04-20T21:38:59;100620.66;;;9.06;73.28
12360;BME280;6244;51.460;7.090;2023-04-20T21:43:56;100615.50;;;9.24;73.14
12360;BME280;6244;51.460;7.090;2023-04-20T21:48:54;100594.78;;;9.19;73.08
12360;BME280;6244;51.460;7.090;2023-04-20T21:53:50;100589.81;;;9.13;73.75
12360;BME280;6244;51.460;7.090;2023-04-20T21:58:47;100605.50;;;9.13;74.19
12360;BME280;6244;51.460;7.090;2023-04-20T22:03:43;100598.50;;;9.13;74.86
12360;BME280;6244;51.460;7.090;2023-04-20T22:08:43;100591.84;;;8.88;76.41
12360;BME280;6244;51.460;7.090;2023-04-20T22:13:39;100587.06;;;8.38;79.24
12360;BME280;6244;51.460;7.090;2023-04-20T22:18:36;100580.56;;;8.26;81.05
12360;BME280;6244;51.460;7.090;2023-04-20T22:23:32;100579.38;;;8.35;81.59
12360;BME280;6244;51.460;7.090;2023-04-20T22:28:30;100578.28;;;8.18;82.56
12360;BME280;6244;51.460;7.090;2023-04-20T22:33:27;100569.91;;;8.10;83.32
12360;BME280;6244;51.460;7.090;2023-04-20T22:38:23;100555.66;;;8.17;83.64
12360;BME280;6244;51.460;7.090;2023-04-20T22:43:20;100563.91;;;8.29;83.59
12360;BME280;6244;51.460;7.090;2023-04-20T22:48:17;100572.16;;;8.40;83.36
12360;BME280;6244;51.460;7.090;2023-04-20T22:53:14;100558.75;;;8.47;83.80
12360;BME280;6244;51.460;7.090;2023-04-20T22:58:11;100549.81;;;8.33;84.03
12360;BME280;6244;51.460;7.090;2023-04-20T23:03:07;100541.09;;;8.32;84.17
12360;BME280;6244;51.460;7.090;2023-04-20T23:08:05;100536.47;;;8.39;83.50
12360;BME280;6244;51.460;7.090;2023-04-20T23:13:02;100535.69;;;8.37;84.08
12360;BME280;6244;51.460;7.090;2023-04-20T23:17:59;100535.03;;;8.52;83.27
12360;BME280;6244;51.460;7.090;2023-04-20T23:22:55;100535.22;;;8.47;83.30
12360;BME280;6244;51.460;7.090;2023-04-20T23:27:53;100540.72;;;8.41;83.38
12360;BME280;6244;51.460;7.090;2023-04-20T23:32:49;100540.47;;;8.47;82.77
12360;BME280;6244;51.460;7.090;2023-04-20T23:37:46;100533.53;;;8.26;84.00
12360;BME280;6244;51.460;7.090;2023-04-20T23:42:42;100538.53;;;8.31;84.06
12360;BME280;6244;51.460;7.090;2023-04-20T23:47:40;100523.13;;;8.24;84.14
12360;BME280;6244;51.460;7.090;2023-04-20T23:52:37;100526.81;;;8.20;84.75
12360;BME280;6244;51.460;7.090;2023-04-20T23:57:34;100505.81;;;8.22;84.58
